PVL927 CYXU-CYKF
Flight info
| Callsign | PVL927 |
|---|---|
| Flight time | N/A |
| Altitude | 3000 |
| Route | CYXU/15 VFR |
| Aircraft | DH8D/M-SDE2E3FGRY/H |
Departure
| Time | 2026-04-25 23:50 |
|---|---|
| Airport | London International Airport (CYXU) |
Arrival
| Time | N/A |
|---|---|
| Airport | Region of Waterloo International Airport (CYKF) |
| Time | Latitude | Longitude | Altitude | Speed | Heading |
|---|---|---|---|---|---|
| 2026-04-25 23:49 | 43.06341 | -81.18542 | 1443 ft | 171 kts | 135° |
| 2026-04-25 23:49 | 43.05434 | -81.17453 | 1334 ft | 177 kts | 135° |
| 2026-04-25 23:50 | 43.04472 | -81.16290 | 1165 ft | 202 kts | 136° |
| 2026-04-25 23:50 | 43.03364 | -81.15043 | 1709 ft | 203 kts | 136° |
| 2026-04-25 23:50 | 43.02371 | -81.13915 | 2701 ft | 178 kts | 136° |
| 2026-04-25 23:50 | 43.01334 | -81.12903 | 2899 ft | 189 kts | 139° |
| 2026-04-25 23:51 | 43.00351 | -81.11659 | 2965 ft | 196 kts | 116° |
| 2026-04-25 23:51 | 43.00015 | -81.09858 | 3005 ft | 203 kts | 84° |
| 2026-04-25 23:51 | 43.00401 | -81.07980 | 3027 ft | 210 kts | 66° |
| 2026-04-25 23:51 | 43.01000 | -81.06130 | 3015 ft | 217 kts | 64° |
| 2026-04-25 23:52 | 43.01641 | -81.04259 | 3010 ft | 218 kts | 64° |
| 2026-04-25 23:52 | 43.02288 | -81.02380 | 3010 ft | 219 kts | 63° |
| 2026-04-25 23:52 | 43.02940 | -81.00503 | 3000 ft | 215 kts | 62° |
| 2026-04-25 23:52 | 43.03821 | -80.98912 | 3004 ft | 210 kts | 44° |
| 2026-04-25 23:53 | 43.04914 | -80.97587 | 3005 ft | 208 kts | 42° |
| 2026-04-25 23:53 | 43.05996 | -80.96309 | 3006 ft | 206 kts | 42° |
| 2026-04-25 23:53 | 43.07082 | -80.95036 | 3007 ft | 205 kts | 42° |
| 2026-04-25 23:53 | 43.08193 | -80.93735 | 3013 ft | 212 kts | 42° |
| 2026-04-25 23:54 | 43.09312 | -80.92434 | 2996 ft | 208 kts | 42° |
| 2026-04-25 23:54 | 43.10404 | -80.91161 | 2983 ft | 205 kts | 41° |
| 2026-04-25 23:54 | 43.11489 | -80.89897 | 2983 ft | 203 kts | 42° |
| 2026-04-25 23:54 | 43.12566 | -80.88640 | 2984 ft | 201 kts | 42° |
| 2026-04-25 23:55 | 43.13626 | -80.87401 | 2984 ft | 200 kts | 42° |
| 2026-04-25 23:55 | 43.14681 | -80.86167 | 2979 ft | 199 kts | 41° |
| 2026-04-25 23:55 | 43.15730 | -80.84939 | 2978 ft | 198 kts | 42° |
| 2026-04-25 23:55 | 43.16776 | -80.83714 | 2976 ft | 198 kts | 42° |
| 2026-04-25 23:56 | 43.17822 | -80.82489 | 2973 ft | 198 kts | 42° |
| 2026-04-25 23:56 | 43.18868 | -80.81263 | 2971 ft | 197 kts | 42° |
| 2026-04-25 23:56 | 43.19915 | -80.80034 | 2971 ft | 196 kts | 42° |
| 2026-04-25 23:56 | 43.20946 | -80.78824 | 2974 ft | 196 kts | 42° |
| 2026-04-25 23:57 | 43.22001 | -80.77584 | 2979 ft | 203 kts | 42° |
| 2026-04-25 23:57 | 43.23075 | -80.76321 | 2981 ft | 209 kts | 42° |
| 2026-04-25 23:57 | 43.24206 | -80.74992 | 2982 ft | 214 kts | 42° |
| 2026-04-25 23:57 | 43.25343 | -80.73654 | 2978 ft | 217 kts | 42° |
| 2026-04-25 23:58 | 43.26494 | -80.72302 | 2976 ft | 219 kts | 41° |
| 2026-04-25 23:58 | 43.27649 | -80.70940 | 2974 ft | 221 kts | 41° |
| 2026-04-25 23:58 | 43.28818 | -80.69566 | 2970 ft | 219 kts | 41° |
| 2026-04-25 23:58 | 43.29949 | -80.68236 | 2966 ft | 207 kts | 42° |
| 2026-04-25 23:59 | 43.31020 | -80.66981 | 2962 ft | 196 kts | 42° |
| 2026-04-25 23:59 | 43.32018 | -80.65803 | 2964 ft | 186 kts | 42° |
| 2026-04-25 23:59 | 43.32990 | -80.64655 | 2963 ft | 180 kts | 43° |
| 2026-04-25 23:59 | 43.33975 | -80.63477 | 2987 ft | 198 kts | 43° |
| 2026-04-26 00:00 | 43.35059 | -80.62189 | 2995 ft | 208 kts | 43° |
| 2026-04-26 00:00 | 43.36102 | -80.60968 | 2943 ft | 185 kts | 42° |
| 2026-04-26 00:00 | 43.37062 | -80.59839 | 2968 ft | 185 kts | 42° |
| 2026-04-26 00:00 | 43.38075 | -80.58640 | 2987 ft | 199 kts | 42° |
| 2026-04-26 00:01 | 43.39169 | -80.57340 | 2993 ft | 212 kts | 42° |
| 2026-04-26 00:01 | 43.40068 | -80.55913 | 2955 ft | 187 kts | 60° |
| 2026-04-26 00:01 | 43.40596 | -80.54430 | 2845 ft | 156 kts | 64° |
| 2026-04-26 00:01 | 43.41024 | -80.53157 | 2654 ft | 144 kts | 64° |
| 2026-04-26 00:02 | 43.41440 | -80.51907 | 2418 ft | 141 kts | 64° |
| 2026-04-26 00:02 | 43.41839 | -80.50717 | 2155 ft | 134 kts | 64° |
| 2026-04-26 00:02 | 43.42240 | -80.49521 | 1953 ft | 156 kts | 64° |
| 2026-04-26 00:02 | 43.42733 | -80.48001 | 2010 ft | 191 kts | 65° |
| 2026-04-26 00:03 | 43.43317 | -80.46230 | 2085 ft | 210 kts | 64° |
| 2026-04-26 00:03 | 43.43926 | -80.44416 | 2137 ft | 205 kts | 64° |
| 2026-04-26 00:03 | 43.44524 | -80.42656 | 1986 ft | 204 kts | 64° |
| 2026-04-26 00:03 | 43.45126 | -80.40875 | 1779 ft | 205 kts | 64° |
| 2026-04-26 00:04 | 43.45711 | -80.39175 | 1679 ft | 187 kts | 63° |
| 2026-04-26 00:04 | 43.46207 | -80.37736 | 2345 ft | 162 kts | 64° |
| 2026-04-26 00:04 | 43.46677 | -80.36330 | 2716 ft | 163 kts | 64° |
| 2026-04-26 00:04 | 43.47156 | -80.34890 | 2886 ft | 173 kts | 65° |
| 2026-04-26 00:05 | 43.47649 | -80.33304 | 2966 ft | 186 kts | 66° |
| 2026-04-26 00:05 | 43.48174 | -80.31600 | 2994 ft | 198 kts | 66° |
| 2026-04-26 00:05 | 43.48724 | -80.29834 | 3003 ft | 207 kts | 66° |
| 2026-04-26 00:05 | 43.49308 | -80.27972 | 3006 ft | 213 kts | 66° |
| 2026-04-26 00:06 | 43.49969 | -80.26158 | 2990 ft | 218 kts | 54° |
| 2026-04-26 00:06 | 43.51244 | -80.25105 | 2987 ft | 216 kts | 14° |
| 2026-04-26 00:06 | 43.52695 | -80.25524 | 2990 ft | 225 kts | 335° |
| 2026-04-26 00:06 | 43.53659 | -80.27232 | 2991 ft | 236 kts | 294° |
| 2026-04-26 00:07 | 43.53712 | -80.29504 | 3006 ft | 238 kts | 264° |
| 2026-04-26 00:07 | 43.53393 | -80.31718 | 3001 ft | 236 kts | 260° |
| 2026-04-26 00:07 | 43.53025 | -80.33919 | 2998 ft | 235 kts | 259° |
| 2026-04-26 00:07 | 43.52631 | -80.36100 | 2996 ft | 234 kts | 258° |
| 2026-04-26 00:08 | 43.52212 | -80.38299 | 3004 ft | 243 kts | 257° |
| 2026-04-26 00:08 | 43.51769 | -80.40570 | 3007 ft | 249 kts | 258° |
| 2026-04-26 00:08 | 43.51400 | -80.42940 | 3005 ft | 253 kts | 259° |
| 2026-04-26 00:08 | 43.50931 | -80.45293 | 3005 ft | 258 kts | 255° |
| 2026-04-26 00:09 | 43.50407 | -80.47667 | 3009 ft | 260 kts | 255° |
| 2026-04-26 00:09 | 43.49886 | -80.50027 | 3006 ft | 262 kts | 255° |
| 2026-04-26 00:09 | 43.49364 | -80.52408 | 2996 ft | 257 kts | 255° |
| 2026-04-26 00:09 | 43.48853 | -80.54748 | 2993 ft | 251 kts | 255° |
| 2026-04-26 00:10 | 43.48340 | -80.57036 | 2986 ft | 247 kts | 252° |
| 2026-04-26 00:10 | 43.47384 | -80.58897 | 2981 ft | 233 kts | 214° |
| 2026-04-26 00:10 | 43.45965 | -80.59457 | 2980 ft | 203 kts | 169° |
| 2026-04-26 00:10 | 43.44656 | -80.58998 | 2989 ft | 190 kts | 155° |
| 2026-04-26 00:11 | 43.43440 | -80.58413 | 3013 ft | 184 kts | 153° |
| 2026-04-26 00:11 | 43.42179 | -80.57752 | 3057 ft | 196 kts | 152° |
| 2026-04-26 00:11 | 43.40982 | -80.56891 | 2988 ft | 192 kts | 134° |
| 2026-04-26 00:11 | 43.40487 | -80.55335 | 2991 ft | 173 kts | 87° |
| 2026-04-26 00:12 | 43.40805 | -80.53802 | 3003 ft | 165 kts | 67° |
| 2026-04-26 00:12 | 43.41259 | -80.52371 | 2973 ft | 162 kts | 65° |
| 2026-04-26 00:12 | 43.41722 | -80.50959 | 2707 ft | 164 kts | 65° |
| 2026-04-26 00:12 | 43.42202 | -80.49515 | 2383 ft | 169 kts | 65° |
| 2026-04-26 00:13 | 43.42702 | -80.48031 | 2012 ft | 170 kts | 64° |
| 2026-04-26 00:13 | 43.43178 | -80.46629 | 1889 ft | 156 kts | 64° |
| 2026-04-26 00:13 | 43.43627 | -80.45309 | 1854 ft | 150 kts | 64° |
| 2026-04-26 00:13 | 43.44067 | -80.44015 | 1842 ft | 153 kts | 64° |
| 2026-04-26 00:14 | 43.44538 | -80.42625 | 1638 ft | 167 kts | 64° |
| 2026-04-26 00:14 | 43.45041 | -80.41133 | 1432 ft | 184 kts | 64° |
| 2026-04-26 00:14 | 43.45552 | -80.39616 | 2445 ft | 170 kts | 65° |
| 2026-04-26 00:14 | 43.46079 | -80.37991 | 2688 ft | 204 kts | 66° |
| 2026-04-26 00:15 | 43.46633 | -80.36208 | 2741 ft | 213 kts | 66° |
| 2026-04-26 00:15 | 43.47223 | -80.34312 | 2697 ft | 203 kts | 66° |
| 2026-04-26 00:15 | 43.47753 | -80.32579 | 2833 ft | 199 kts | 65° |
| 2026-04-26 00:15 | 43.48307 | -80.30854 | 2940 ft | 199 kts | 65° |
| 2026-04-26 00:16 | 43.48879 | -80.29015 | 2990 ft | 219 kts | 66° |
| 2026-04-26 00:16 | 43.49529 | -80.27077 | 2988 ft | 221 kts | 58° |
| 2026-04-26 00:16 | 43.50713 | -80.25826 | 2993 ft | 222 kts | 21° |
| 2026-04-26 00:16 | 43.52253 | -80.25966 | 2995 ft | 232 kts | 343° |
| 2026-04-26 00:17 | 43.53454 | -80.27492 | 2995 ft | 246 kts | 304° |
| 2026-04-26 00:17 | 43.53785 | -80.29803 | 3006 ft | 254 kts | 270° |
| 2026-04-26 00:17 | 43.53483 | -80.32207 | 3005 ft | 256 kts | 259° |
| 2026-04-26 00:17 | 43.53035 | -80.34582 | 2999 ft | 257 kts | 257° |
| 2026-04-26 00:18 | 43.52561 | -80.36957 | 2998 ft | 256 kts | 256° |
| 2026-04-26 00:18 | 43.52082 | -80.39300 | 3000 ft | 256 kts | 256° |
| 2026-04-26 00:18 | 43.51592 | -80.41670 | 2997 ft | 255 kts | 256° |
| 2026-04-26 00:18 | 43.51101 | -80.44025 | 3000 ft | 255 kts | 256° |
| 2026-04-26 00:19 | 43.50608 | -80.46375 | 3003 ft | 255 kts | 256° |
| 2026-04-26 00:19 | 43.50117 | -80.48705 | 3004 ft | 256 kts | 256° |
| 2026-04-26 00:19 | 43.49619 | -80.51058 | 3024 ft | 255 kts | 256° |
| 2026-04-26 00:19 | 43.49121 | -80.53409 | 3012 ft | 257 kts | 256° |
| 2026-04-26 00:20 | 43.48621 | -80.55763 | 2999 ft | 252 kts | 256° |
| 2026-04-26 00:20 | 43.47996 | -80.57890 | 2832 ft | 234 kts | 237° |
| 2026-04-26 00:20 | 43.47059 | -80.59586 | 2619 ft | 205 kts | 239° |
| 2026-04-26 00:20 | 43.46476 | -80.61182 | 2488 ft | 178 kts | 237° |
| 2026-04-26 00:21 | 43.45446 | -80.62051 | 2451 ft | 177 kts | 182° |
| 2026-04-26 00:21 | 43.44320 | -80.61607 | 2430 ft | 168 kts | 142° |
| 2026-04-26 00:21 | 43.43349 | -80.60649 | 2421 ft | 175 kts | 136° |
| 2026-04-26 00:21 | 43.42381 | -80.59553 | 2432 ft | 182 kts | 134° |
| 2026-04-26 00:22 | 43.41428 | -80.58385 | 2452 ft | 188 kts | 132° |
| 2026-04-26 00:22 | 43.40502 | -80.57063 | 2463 ft | 194 kts | 121° |
| 2026-04-26 00:22 | 43.40255 | -80.55307 | 2450 ft | 189 kts | 78° |
| 2026-04-26 00:22 | 43.40720 | -80.53646 | 2491 ft | 187 kts | 65° |
| 2026-04-26 00:23 | 43.41278 | -80.52030 | 2498 ft | 187 kts | 64° |
| 2026-04-26 00:23 | 43.41830 | -80.50427 | 2487 ft | 181 kts | 64° |
| 2026-04-26 00:23 | 43.42347 | -80.48919 | 2427 ft | 170 kts | 65° |
| 2026-04-26 00:23 | 43.42824 | -80.47459 | 2301 ft | 165 kts | 65° |
| 2026-04-26 00:24 | 43.43287 | -80.46035 | 2169 ft | 163 kts | 65° |
| 2026-04-26 00:24 | 43.43745 | -80.44625 | 2037 ft | 161 kts | 65° |
| 2026-04-26 00:24 | 43.44204 | -80.43213 | 1906 ft | 161 kts | 65° |
| 2026-04-26 00:24 | 43.44658 | -80.41812 | 1775 ft | 161 kts | 65° |
| 2026-04-26 00:25 | 43.45108 | -80.40411 | 1807 ft | 153 kts | 65° |
| 2026-04-26 00:25 | 43.45548 | -80.39033 | 2444 ft | 173 kts | 65° |
| 2026-04-26 00:25 | 43.46080 | -80.37395 | 2810 ft | 203 kts | 65° |
| 2026-04-26 00:25 | 43.46699 | -80.35510 | 2959 ft | 232 kts | 65° |
| 2026-04-26 00:26 | 43.47391 | -80.33411 | 2989 ft | 241 kts | 65° |
| 2026-04-26 00:26 | 43.48059 | -80.31393 | 2988 ft | 227 kts | 65° |
| 2026-04-26 00:26 | 43.48757 | -80.29520 | 2969 ft | 215 kts | 54° |
| 2026-04-26 00:26 | 43.49997 | -80.28495 | 2982 ft | 213 kts | 14° |
| 2026-04-26 00:27 | 43.51443 | -80.28929 | 2990 ft | 222 kts | 334° |
| 2026-04-26 00:27 | 43.52369 | -80.30650 | 2992 ft | 233 kts | 292° |
| 2026-04-26 00:27 | 43.52457 | -80.32881 | 3004 ft | 235 kts | 269° |
| 2026-04-26 00:27 | 43.52262 | -80.35169 | 3009 ft | 247 kts | 264° |
| 2026-04-26 00:28 | 43.51967 | -80.37573 | 3010 ft | 260 kts | 262° |
| 2026-04-26 00:28 | 43.51597 | -80.39990 | 3003 ft | 258 kts | 259° |
| 2026-04-26 00:28 | 43.51181 | -80.42431 | 3009 ft | 266 kts | 258° |
| 2026-04-26 00:28 | 43.50724 | -80.44946 | 3007 ft | 272 kts | 257° |
| 2026-04-26 00:29 | 43.50251 | -80.47420 | 2998 ft | 262 kts | 257° |
| 2026-04-26 00:29 | 43.49781 | -80.49782 | 2996 ft | 252 kts | 257° |
| 2026-04-26 00:29 | 43.49310 | -80.52110 | 2994 ft | 246 kts | 256° |
| 2026-04-26 00:29 | 43.48853 | -80.54339 | 2994 ft | 242 kts | 256° |
| 2026-04-26 00:30 | 43.48389 | -80.56574 | 2999 ft | 247 kts | 256° |